createdAt,value
2018-06-08T00:01:44.576Z,7.93
2018-06-08T00:04:12.613Z,7.47
2018-06-08T00:06:40.843Z,6.83
2018-06-08T00:09:09.219Z,7.27
2018-06-08T00:11:37.242Z,6.90
2018-06-08T00:14:05.270Z,7.77
2018-06-08T00:16:33.320Z,7.17
2018-06-08T00:19:01.341Z,7.73
2018-06-08T00:21:29.376Z,7.80
2018-06-08T00:23:57.421Z,6.50
2018-06-08T00:26:25.467Z,7.30
2018-06-08T00:28:53.455Z,7.47
2018-06-08T00:31:21.464Z,7.57
2018-06-08T00:33:49.464Z,7.63
2018-06-08T00:36:17.469Z,8.07
2018-06-08T00:38:46.537Z,7.90
2018-06-08T00:41:14.581Z,7.20
2018-06-08T00:43:42.610Z,7.67
2018-06-08T00:46:10.665Z,7.90
2018-06-08T00:48:38.657Z,7.00
2018-06-08T00:51:06.673Z,8.07
2018-06-08T00:53:34.705Z,7.30
2018-06-08T00:56:02.705Z,8.17
2018-06-08T00:58:30.709Z,8.60
2018-06-08T01:00:58.724Z,8.43
2018-06-08T01:03:26.753Z,8.03
2018-06-08T01:05:54.799Z,7.80
2018-06-08T01:08:22.801Z,7.67
2018-06-08T01:10:50.800Z,8.83
2018-06-08T01:13:18.818Z,8.33
2018-06-08T01:15:46.866Z,7.53
2018-06-08T01:18:14.868Z,7.93
2018-06-08T01:20:42.862Z,8.43
2018-06-08T01:23:11.105Z,8.00
2018-06-08T01:25:39.125Z,8.13
2018-06-08T01:28:07.324Z,8.10
2018-06-08T01:30:35.341Z,8.57
2018-06-08T01:33:03.353Z,8.97
2018-06-08T01:35:31.328Z,9.10
2018-06-08T01:37:59.312Z,8.70
2018-06-08T01:40:27.434Z,8.17
2018-06-08T01:42:55.426Z,8.77
2018-06-08T01:45:23.412Z,8.80
2018-06-08T01:47:51.442Z,9.37
2018-06-08T01:50:19.468Z,9.20
2018-06-08T01:52:47.499Z,7.70
2018-06-08T01:55:15.495Z,8.67
2018-06-08T01:57:43.486Z,8.50
2018-06-08T02:00:11.515Z,8.73
2018-06-08T02:02:39.545Z,9.80
2018-06-08T02:05:07.555Z,9.30
2018-06-08T02:07:35.560Z,9.20
2018-06-08T02:10:03.589Z,11.10
2018-06-08T02:12:31.632Z,9.03
2018-06-08T02:14:59.626Z,8.87
2018-06-08T02:17:27.700Z,10.13
2018-06-08T02:19:55.717Z,9.20
2018-06-08T02:22:23.756Z,10.17
2018-06-08T02:24:52.391Z,8.73
2018-06-08T02:27:20.430Z,9.60
2018-06-08T02:29:48.526Z,9.37
2018-06-08T02:32:16.547Z,8.80
2018-06-08T02:34:44.528Z,8.90
2018-06-08T02:37:12.653Z,10.10
2018-06-08T02:39:40.682Z,9.57
2018-06-08T02:42:08.688Z,10.03
2018-06-08T02:44:36.725Z,9.23
2018-06-08T02:47:04.725Z,10.13
2018-06-08T02:49:32.744Z,8.97
2018-06-08T02:52:00.732Z,8.63
2018-06-08T02:54:28.756Z,10.00
2018-06-08T02:56:56.801Z,9.20
2018-06-08T02:59:24.796Z,9.70
2018-06-08T03:01:52.804Z,9.73
2018-06-08T03:04:20.809Z,10.47
2018-06-08T03:06:48.869Z,10.20
2018-06-08T03:09:16.868Z,10.73
2018-06-08T03:11:45.015Z,10.53
2018-06-08T03:14:13.033Z,9.77
2018-06-08T03:16:41.089Z,9.77
2018-06-08T03:19:09.101Z,9.73
2018-06-08T03:21:37.080Z,10.07
2018-06-08T03:24:05.067Z,9.83
2018-06-08T03:26:33.056Z,10.83
2018-06-08T03:29:01.122Z,12.00
2018-06-08T03:31:29.163Z,11.33
2018-06-08T03:33:57.173Z,10.83
2018-06-08T03:36:25.280Z,10.30
2018-06-08T03:38:53.280Z,10.70
2018-06-08T03:41:21.310Z,9.50
2018-06-08T03:43:49.344Z,10.30
2018-06-08T03:46:17.363Z,9.83
2018-06-08T03:48:45.364Z,9.93
2018-06-08T03:51:14.068Z,8.77
2018-06-08T03:53:42.381Z,10.63
2018-06-08T03:56:10.401Z,9.73
2018-06-08T03:58:38.404Z,9.57
2018-06-08T04:01:06.554Z,9.60
2018-06-08T04:03:34.545Z,10.30
2018-06-08T04:06:02.565Z,11.10
2018-06-08T04:08:30.590Z,9.20
2018-06-08T04:10:58.572Z,10.03
2018-06-08T04:13:26.585Z,10.80
2018-06-08T04:15:54.572Z,10.63
2018-06-08T04:18:22.593Z,10.57
2018-06-08T04:20:50.665Z,10.27
2018-06-08T04:23:18.673Z,10.37
2018-06-08T04:25:46.717Z,10.00
2018-06-08T04:28:14.692Z,10.63
2018-06-08T04:30:42.697Z,10.20
2018-06-08T04:33:10.717Z,9.80
2018-06-08T04:35:38.729Z,9.83
2018-06-08T04:38:06.725Z,8.70
2018-06-08T04:40:34.712Z,10.00
2018-06-08T04:43:02.734Z,10.70
2018-06-08T04:45:30.763Z,10.40
2018-06-08T04:47:58.791Z,10.67
2018-06-08T04:50:26.798Z,10.37
2018-06-08T04:52:54.793Z,9.90
2018-06-08T04:55:22.765Z,9.43
2018-06-08T04:57:50.764Z,9.57
2018-06-08T05:00:18.773Z,10.03
2018-06-08T05:02:46.855Z,9.40
2018-06-08T05:05:14.866Z,9.67
2018-06-08T05:07:42.847Z,9.27
2018-06-08T05:10:10.841Z,10.33
2018-06-08T05:12:38.889Z,9.70
2018-06-08T05:15:06.926Z,9.90
2018-06-08T05:17:34.903Z,9.00
2018-06-08T05:20:02.923Z,9.60
2018-06-08T05:22:30.955Z,8.80
2018-06-08T05:24:58.987Z,9.73
2018-06-08T05:27:26.982Z,8.80
2018-06-08T05:29:54.992Z,9.00
2018-06-08T05:32:22.984Z,9.30
2018-06-08T05:34:50.973Z,8.57
2018-06-08T05:37:19.047Z,9.60
2018-06-08T05:39:47.033Z,7.67
2018-06-08T05:42:15.057Z,10.37
2018-06-08T05:44:43.075Z,8.30
2018-06-08T05:47:11.069Z,8.87
2018-06-08T05:49:39.121Z,8.47
2018-06-08T05:52:07.144Z,9.20
2018-06-08T05:54:35.185Z,7.90
2018-06-08T05:57:03.196Z,9.17
2018-06-08T05:59:31.232Z,7.67
2018-06-08T06:01:59.221Z,8.93
2018-06-08T06:04:27.236Z,8.03
2018-06-08T06:06:55.256Z,8.93
2018-06-08T06:09:23.341Z,8.80
2018-06-08T06:11:51.336Z,8.47
2018-06-08T06:14:19.365Z,8.53
2018-06-08T06:16:47.398Z,8.75
2018-06-08T06:19:15.403Z,8.17
2018-06-08T06:21:43.466Z,7.90
2018-06-08T06:24:11.480Z,8.43
2018-06-08T06:26:39.467Z,7.83
2018-06-08T06:29:07.453Z,7.40
2018-06-08T06:31:35.492Z,7.67
2018-06-08T06:34:03.489Z,7.65
2018-06-08T06:36:32.049Z,7.97
2018-06-08T06:39:00.105Z,7.35
2018-06-08T06:41:28.101Z,6.20
2018-06-08T06:43:57.132Z,7.22
2018-06-08T06:46:25.121Z,7.37
2018-06-08T06:48:53.137Z,7.37
2018-06-08T06:51:21.224Z,6.50
2018-06-08T06:53:49.160Z,6.45
2018-06-08T06:56:17.165Z,7.35
2018-06-08T06:58:45.159Z,6.87
2018-06-08T07:01:13.212Z,6.62
2018-06-08T07:03:42.145Z,6.90
2018-06-08T07:06:10.150Z,6.57
2018-06-08T07:08:38.256Z,7.13
2018-06-08T07:11:06.264Z,6.33
2018-06-08T07:13:34.296Z,6.60
2018-06-08T07:16:02.336Z,6.53
2018-06-08T07:18:30.366Z,6.27
2018-06-08T07:20:58.372Z,6.00
2018-06-08T07:23:26.369Z,5.70
2018-06-08T07:25:54.462Z,6.00
2018-06-08T07:28:22.553Z,5.40
2018-06-08T07:30:50.569Z,6.20
2018-06-08T07:33:18.588Z,6.20
2018-06-08T07:35:46.640Z,5.70
2018-06-08T07:38:14.625Z,5.03
2018-06-08T07:40:42.764Z,5.37
2018-06-08T07:43:10.857Z,5.50
2018-06-08T07:45:38.893Z,5.00
2018-06-08T07:48:07.136Z,4.80
2018-06-08T07:50:35.258Z,5.47
2018-06-08T07:53:03.281Z,5.50
2018-06-08T07:55:31.319Z,5.80
2018-06-08T07:57:59.325Z,5.50
2018-06-08T08:00:27.297Z,6.63
2018-06-08T08:02:55.304Z,4.60
2018-06-08T08:05:23.360Z,4.70
2018-06-08T08:07:51.392Z,4.73
2018-06-08T08:10:19.425Z,4.83
2018-06-08T08:12:47.454Z,4.40
2018-06-08T08:15:15.485Z,4.23
2018-06-08T08:17:43.488Z,4.80
2018-06-08T08:20:11.505Z,4.30
2018-06-08T08:22:39.489Z,5.03
2018-06-08T08:25:07.579Z,4.27
2018-06-08T08:27:35.576Z,4.63
2018-06-08T08:30:04.849Z,4.90
2018-06-08T08:32:32.876Z,4.93
2018-06-08T08:35:00.913Z,5.23
2018-06-08T08:37:28.943Z,4.53
2018-06-08T08:39:56.957Z,4.43
2018-06-08T08:42:25.003Z,4.00
2018-06-08T08:44:53.033Z,5.00
2018-06-08T08:47:21.042Z,4.90
2018-06-08T08:49:49.064Z,4.93
2018-06-08T08:52:17.110Z,4.80
2018-06-08T08:54:45.160Z,5.10
2018-06-08T08:57:14.197Z,4.97
2018-06-08T08:59:42.216Z,4.87
2018-06-08T09:02:10.253Z,4.70
2018-06-08T09:04:38.256Z,4.50
2018-06-08T09:07:06.298Z,5.43
2018-06-08T09:09:34.324Z,5.57
2018-06-08T09:12:02.374Z,5.27
2018-06-08T09:14:30.396Z,4.50
2018-06-08T09:16:58.420Z,5.10
2018-06-08T09:19:26.413Z,4.60
2018-06-08T09:21:54.430Z,5.10
2018-06-08T09:24:22.444Z,4.57
2018-06-08T09:26:50.445Z,5.40
2018-06-08T09:29:18.453Z,5.67
2018-06-08T09:31:46.424Z,5.00
2018-06-08T09:34:14.518Z,4.80
2018-06-08T09:36:42.539Z,5.23
2018-06-08T09:39:10.512Z,5.10
2018-06-08T09:41:38.547Z,5.33
2018-06-08T09:44:06.513Z,5.27
2018-06-08T09:46:34.497Z,5.50
2018-06-08T09:49:02.496Z,5.00
2018-06-08T09:51:30.551Z,5.47
2018-06-08T09:53:58.570Z,4.70
2018-06-08T09:56:26.576Z,4.60
2018-06-08T09:58:54.591Z,4.43
2018-06-08T10:01:22.596Z,4.67
2018-06-08T10:03:50.615Z,4.70
2018-06-08T10:06:18.621Z,4.60
2018-06-08T10:08:46.666Z,4.63
2018-06-08T10:11:14.672Z,5.17
2018-06-08T10:13:43.916Z,4.80
2018-06-08T10:16:11.978Z,4.53
2018-06-08T10:18:39.940Z,4.30
2018-06-08T10:21:07.963Z,5.40
2018-06-08T10:23:36.045Z,4.80
2018-06-08T10:26:04.090Z,4.70
2018-06-08T10:28:32.074Z,5.00
2018-06-08T10:31:00.152Z,4.70
2018-06-08T10:33:28.201Z,5.60
2018-06-08T10:35:56.235Z,5.63
2018-06-08T10:38:24.273Z,5.33
2018-06-08T10:40:52.257Z,4.90
2018-06-08T10:43:20.248Z,5.77
2018-06-08T10:45:48.234Z,5.57
2018-06-08T10:48:16.224Z,6.17
2018-06-08T10:50:44.221Z,4.73
2018-06-08T10:53:12.213Z,5.60
2018-06-08T10:55:40.202Z,6.10
2018-06-08T10:58:08.214Z,5.17
2018-06-08T11:00:36.186Z,4.37
2018-06-08T11:03:04.184Z,5.60
2018-06-08T11:05:32.196Z,5.70
2018-06-08T11:08:00.233Z,5.20
2018-06-08T11:10:28.224Z,5.20
2018-06-08T11:12:56.248Z,5.33
2018-06-08T11:15:24.258Z,5.47
2018-06-08T11:17:52.232Z,6.07
2018-06-08T11:20:20.296Z,5.63
2018-06-08T11:22:48.285Z,5.60
2018-06-08T11:25:16.292Z,5.20
2018-06-08T11:27:44.313Z,5.53
2018-06-08T11:30:12.293Z,5.87
2018-06-08T11:32:40.349Z,5.33
2018-06-08T11:35:08.356Z,5.00
2018-06-08T11:37:36.338Z,5.50
2018-06-08T11:40:04.396Z,5.80
2018-06-08T11:42:32.416Z,5.57
2018-06-08T11:45:00.460Z,4.87
2018-06-08T11:47:29.066Z,5.37
2018-06-08T11:49:57.108Z,6.00
2018-06-08T11:52:25.150Z,6.10
2018-06-08T11:54:53.927Z,6.67
2018-06-08T11:57:22.100Z,5.30
2018-06-08T11:59:50.128Z,5.60
2018-06-08T12:02:18.153Z,6.27
2018-06-08T12:04:46.142Z,5.70
2018-06-08T12:07:14.304Z,6.17
2018-06-08T12:09:42.899Z,5.60
2018-06-08T12:12:11.154Z,5.60
2018-06-08T12:14:39.189Z,5.23
2018-06-08T12:17:07.219Z,6.27
2018-06-08T12:19:35.262Z,4.93
2018-06-08T12:22:03.256Z,5.30
2018-06-08T12:24:31.373Z,5.23
2018-06-08T12:26:59.413Z,5.30
2018-06-08T12:29:27.554Z,5.47
2018-06-08T12:31:55.554Z,5.00
2018-06-08T12:34:23.593Z,5.17
2018-06-08T12:36:51.603Z,6.00
2018-06-08T12:39:20.628Z,5.87
2018-06-08T12:41:48.655Z,6.07
2018-06-08T12:44:16.706Z,5.83
2018-06-08T12:46:44.685Z,5.50
2018-06-08T12:49:12.708Z,5.60
2018-06-08T12:51:40.705Z,5.63
2018-06-08T12:54:08.741Z,5.33
2018-06-08T12:56:36.765Z,5.73
2018-06-08T12:59:05.166Z,5.50
2018-06-08T13:01:33.160Z,5.70
2018-06-08T13:04:01.176Z,5.50
2018-06-08T13:06:29.144Z,5.47
2018-06-08T13:08:57.206Z,5.67
2018-06-08T13:11:25.236Z,5.40
2018-06-08T13:13:53.261Z,5.07
2018-06-08T13:16:21.247Z,5.20
2018-06-08T13:18:49.244Z,6.10
2018-06-08T13:21:17.291Z,5.50
2018-06-08T13:23:45.289Z,6.33
2018-06-08T13:26:13.325Z,5.10
2018-06-08T13:28:41.361Z,5.70
2018-06-08T13:31:09.382Z,6.90
2018-06-08T13:33:37.401Z,5.60
2018-06-08T13:36:05.411Z,6.83
2018-06-08T13:38:33.414Z,6.50
2018-06-08T13:41:01.425Z,6.80
2018-06-08T13:43:29.483Z,8.43
2018-06-08T13:45:57.471Z,6.73
2018-06-08T13:48:25.500Z,6.40
2018-06-08T13:50:53.520Z,6.30
2018-06-08T13:53:21.577Z,6.20
2018-06-08T13:55:49.668Z,5.90
2018-06-08T13:58:17.734Z,6.37
2018-06-08T14:00:45.758Z,6.77
2018-06-08T14:03:13.794Z,5.70
2018-06-08T14:05:41.772Z,5.83
2018-06-08T14:08:09.776Z,7.13
2018-06-08T14:10:37.823Z,5.73
2018-06-08T14:13:06.165Z,7.17
2018-06-08T14:15:34.164Z,6.73
2018-06-08T14:18:02.180Z,6.70
2018-06-08T14:20:30.250Z,6.27
2018-06-08T14:22:58.256Z,5.97
2018-06-08T14:25:26.305Z,6.20
2018-06-08T14:27:54.463Z,6.70
2018-06-08T14:30:22.474Z,6.03
2018-06-08T14:32:50.463Z,5.47
2018-06-08T14:35:18.464Z,5.70
2018-06-08T14:37:46.464Z,6.20
2018-06-08T14:40:14.473Z,5.63
2018-06-08T14:42:42.464Z,5.53
2018-06-08T14:45:10.505Z,7.10
2018-06-08T14:47:38.626Z,5.47
2018-06-08T14:50:06.617Z,6.33
2018-06-08T14:52:34.650Z,6.17
2018-06-08T14:55:02.669Z,5.10
2018-06-08T14:57:31.327Z,6.10
2018-06-08T14:59:59.740Z,5.37
2018-06-08T15:02:27.912Z,5.43
2018-06-08T15:04:56.421Z,5.40
2018-06-08T15:07:24.430Z,5.00
2018-06-08T15:09:52.481Z,5.67
2018-06-08T15:12:20.688Z,5.80
2018-06-08T15:14:48.780Z,5.60
2018-06-08T15:17:17.344Z,5.40
2018-06-08T15:19:45.352Z,4.87
2018-06-08T15:22:13.563Z,4.93
2018-06-08T15:24:41.661Z,5.20
2018-06-08T15:27:09.821Z,5.00
2018-06-08T15:29:37.880Z,5.00
2018-06-08T15:32:06.060Z,4.80
2018-06-08T15:34:34.114Z,6.00
2018-06-08T15:37:02.103Z,4.90
2018-06-08T15:39:30.232Z,5.53
2018-06-08T15:41:58.304Z,5.07
2018-06-08T15:44:27.140Z,4.67
2018-06-08T15:46:55.153Z,4.77
2018-06-08T15:49:23.144Z,4.87
2018-06-08T15:51:51.129Z,4.10
2018-06-08T15:54:19.148Z,4.70
2018-06-08T15:56:47.293Z,5.33
2018-06-08T15:59:15.320Z,3.90
2018-06-08T16:01:43.341Z,4.00
2018-06-08T16:04:12.407Z,4.70
2018-06-08T16:06:40.601Z,4.23
2018-06-08T16:09:08.662Z,4.60
2018-06-08T16:11:36.697Z,4.87
2018-06-08T16:14:04.857Z,3.30
2018-06-08T16:16:32.905Z,3.70
2018-06-08T16:19:00.919Z,3.73
2018-06-08T16:21:28.999Z,3.77
2018-06-08T16:23:57.004Z,3.53
2018-06-08T16:26:25.034Z,3.50
2018-06-08T16:28:53.053Z,2.90
2018-06-08T16:31:21.057Z,3.10
2018-06-08T16:33:49.109Z,3.13
2018-06-08T16:36:17.158Z,3.40
2018-06-08T16:38:45.180Z,2.80
2018-06-08T16:41:13.193Z,2.97
2018-06-08T16:43:41.176Z,2.93
2018-06-08T16:46:09.197Z,3.87
2018-06-08T16:48:37.332Z,3.13
2018-06-08T16:51:05.677Z,3.40
2018-06-08T16:53:33.789Z,3.00
2018-06-08T16:56:01.867Z,3.03
2018-06-08T16:58:29.892Z,2.93
2018-06-08T17:00:57.912Z,3.77
2018-06-08T17:03:25.916Z,3.50
2018-06-08T17:05:53.942Z,3.17
2018-06-08T17:08:21.978Z,3.87
2018-06-08T17:10:50.060Z,2.93
2018-06-08T17:13:18.114Z,2.80
2018-06-08T17:15:46.124Z,2.90
2018-06-08T17:18:15.156Z,3.27
2018-06-08T17:20:43.242Z,3.20
2018-06-08T17:23:11.437Z,3.60
2018-06-08T17:25:39.472Z,3.20
2018-06-08T17:28:07.466Z,2.90
2018-06-08T17:30:35.453Z,3.10
2018-06-08T17:33:03.485Z,3.40
2018-06-08T17:35:31.560Z,3.77
2018-06-08T17:37:59.577Z,3.20
2018-06-08T17:40:27.596Z,2.73
2018-06-08T17:42:55.650Z,5.33
2018-06-08T17:45:23.641Z,2.90
2018-06-08T17:47:51.633Z,3.60
2018-06-08T17:50:19.678Z,3.70
2018-06-08T17:52:47.852Z,3.03
2018-06-08T17:55:15.980Z,3.27
2018-06-08T17:57:44.217Z,3.00
2018-06-08T18:00:12.729Z,2.53
2018-06-08T18:02:40.790Z,2.90
2018-06-08T18:05:08.858Z,3.30
2018-06-08T18:07:36.904Z,2.80
2018-06-08T18:10:05.160Z,3.43
2018-06-08T18:12:33.317Z,3.17
2018-06-08T18:15:01.537Z,2.80
2018-06-08T18:17:29.557Z,3.90
2018-06-08T18:19:57.632Z,3.73
2018-06-08T18:22:25.973Z,2.93
2018-06-08T18:24:54.065Z,3.20
2018-06-08T18:27:22.388Z,3.10
2018-06-08T18:29:50.959Z,3.50
2018-06-08T18:32:19.126Z,3.20
2018-06-08T18:34:47.137Z,3.33
2018-06-08T18:37:15.150Z,3.20
2018-06-08T18:39:43.190Z,3.87
2018-06-08T18:42:11.274Z,2.33
2018-06-08T18:44:39.337Z,3.10
2018-06-08T18:47:08.101Z,3.50
2018-06-08T18:49:36.176Z,2.97
2018-06-08T18:52:04.241Z,3.50
2018-06-08T18:54:32.257Z,3.00
2018-06-08T18:57:00.269Z,3.50
2018-06-08T18:59:28.379Z,3.80
2018-06-08T19:01:56.373Z,4.90
2018-06-08T19:04:24.599Z,3.70
2018-06-08T19:06:52.876Z,3.87
2018-06-08T19:09:20.912Z,4.00
2018-06-08T19:11:48.992Z,3.63
2018-06-08T19:14:17.341Z,3.83
2018-06-08T19:16:45.558Z,4.03
2018-06-08T19:19:13.741Z,3.40
2018-06-08T19:21:41.812Z,3.70
2018-06-08T19:24:10.348Z,3.80
2018-06-08T19:26:38.526Z,3.60
2018-06-08T19:29:06.796Z,3.97
2018-06-08T19:31:35.093Z,3.57
2018-06-08T19:34:03.187Z,3.10
2018-06-08T19:36:31.380Z,3.80
2018-06-08T19:38:59.602Z,3.40
2018-06-08T19:41:27.711Z,4.07
2018-06-08T19:43:55.927Z,4.03
2018-06-08T19:46:24.021Z,3.90
2018-06-08T19:48:52.333Z,3.50
2018-06-08T19:51:20.420Z,3.20
2018-06-08T19:53:48.491Z,3.80
2018-06-08T19:56:16.802Z,4.57
2018-06-08T19:58:44.981Z,4.20
2018-06-08T20:01:13.145Z,3.53
2018-06-08T20:03:41.248Z,3.60
2018-06-08T20:06:09.431Z,3.87
2018-06-08T20:08:37.452Z,3.93
2018-06-08T20:11:05.447Z,3.90
2018-06-08T20:13:33.509Z,3.20
2018-06-08T20:16:01.530Z,4.07
2018-06-08T20:18:29.559Z,3.67
2018-06-08T20:20:57.612Z,3.40
2018-06-08T20:23:25.673Z,3.90
2018-06-08T20:25:53.669Z,3.17
2018-06-08T20:28:21.701Z,4.07
2018-06-08T20:30:49.720Z,3.50
2018-06-08T20:33:17.741Z,3.70
2018-06-08T20:35:45.729Z,2.90
2018-06-08T20:38:13.761Z,3.40
2018-06-08T20:40:41.826Z,3.43
2018-06-08T20:43:09.911Z,4.00
2018-06-08T20:45:37.941Z,3.63
2018-06-08T20:48:05.929Z,3.80
2018-06-08T20:50:34.011Z,4.27
2018-06-08T20:53:02.041Z,3.50
2018-06-08T20:55:30.128Z,3.40
2018-06-08T20:58:00.905Z,3.63
2018-06-08T21:00:28.942Z,3.40
2018-06-08T21:02:56.913Z,3.73
2018-06-08T21:05:24.929Z,4.07
2018-06-08T21:07:52.932Z,3.30
2018-06-08T21:10:20.976Z,4.90
2018-06-08T21:12:48.996Z,3.37
2018-06-08T21:15:17.105Z,3.50
2018-06-08T21:17:46.143Z,3.90
2018-06-08T21:20:14.177Z,3.37
2018-06-08T21:22:42.180Z,3.90
2018-06-08T21:25:10.200Z,4.03
2018-06-08T21:27:39.096Z,3.97
2018-06-08T21:30:07.126Z,3.90
2018-06-08T21:32:35.159Z,3.37
2018-06-08T21:35:03.220Z,3.70
2018-06-08T21:37:31.234Z,3.90
2018-06-08T21:39:59.312Z,3.67
2018-06-08T21:42:27.313Z,4.20
2018-06-08T21:44:55.500Z,4.33
2018-06-08T21:47:23.621Z,5.50
2018-06-08T21:49:51.625Z,3.87
2018-06-08T21:52:20.136Z,3.27
2018-06-08T21:54:48.302Z,4.10
2018-06-08T21:57:16.461Z,4.57
2018-06-08T21:59:44.497Z,3.97
2018-06-08T22:02:12.563Z,4.03
2018-06-08T22:04:40.596Z,3.57
2018-06-08T22:07:08.890Z,3.77
2018-06-08T22:09:36.893Z,3.67
2018-06-08T22:12:05.043Z,4.03
2018-06-08T22:14:33.077Z,4.97
2018-06-08T22:17:01.115Z,4.20
2018-06-08T22:19:29.109Z,4.30
2018-06-08T22:21:57.108Z,4.37
2018-06-08T22:24:25.113Z,4.20
2018-06-08T22:26:58.796Z,3.80
2018-06-08T22:29:27.812Z,4.93
2018-06-08T22:31:55.823Z,4.43
2018-06-08T22:34:29.649Z,4.50
2018-06-08T22:36:57.650Z,5.17
2018-06-08T22:39:25.736Z,4.60
2018-06-08T22:41:53.784Z,4.13
2018-06-08T22:44:21.951Z,4.87
2018-06-08T22:46:49.965Z,4.93
2018-06-08T22:49:18.091Z,4.87
2018-06-08T22:51:46.108Z,4.53
2018-06-08T22:54:14.182Z,4.77
2018-06-08T22:56:42.187Z,4.93
2018-06-08T22:59:10.192Z,5.53
2018-06-08T23:01:38.204Z,5.03
2018-06-08T23:04:06.214Z,5.20
2018-06-08T23:06:34.269Z,5.33
2018-06-08T23:09:02.395Z,5.27
2018-06-08T23:11:30.400Z,4.80
2018-06-08T23:13:58.412Z,6.10
2018-06-08T23:16:26.450Z,5.00
2018-06-08T23:18:54.479Z,5.57
2018-06-08T23:21:22.545Z,5.30
2018-06-08T23:23:50.689Z,5.37
2018-06-08T23:26:18.730Z,5.50
2018-06-08T23:28:46.746Z,5.73
2018-06-08T23:31:14.756Z,5.50
2018-06-08T23:33:42.814Z,5.40
2018-06-08T23:36:10.851Z,5.80
2018-06-08T23:38:38.869Z,6.30
2018-06-08T23:41:06.919Z,6.53
2018-06-08T23:43:35.025Z,6.10
2018-06-08T23:46:03.052Z,5.73
2018-06-08T23:48:31.034Z,5.77
2018-06-08T23:50:59.132Z,6.10
2018-06-08T23:53:27.134Z,6.30
2018-06-08T23:55:55.291Z,6.23
2018-06-08T23:58:24.382Z,5.80
